Time;durP1;ratioP1;P1;durP2;ratioP2;P2;SDS_P1;SDS_P2;PMS_P1;PMS_P2;Temp;Humidity;BMP_temperature;BMP_pressure;BME280_temperature;BME280_humidity;BME280_pressure;Samples;Min_cycle;Max_cycle;Signal;HPM_P1;HPM_P2
2022/06/20 00:05:20;;;;;;;4.50;3.40;;;;;;;19.60;53.60;98668.45;446720;1272;145807;-62
2022/06/20 00:15:42;;;;;;;5.10;2.80;;;;;;;19.46;54.25;98664.48;437037;1272;142021;-62
2022/06/20 00:26:04;;;;;;;5.50;2.80;;;;;;;19.33;54.86;98670.84;446687;1271;143345;-62
2022/06/20 00:36:25;;;;;;;8.40;3.70;;;;;;;19.21;55.31;98709.30;447451;1272;142115;-62
2022/06/20 00:46:51;;;;;;;3.60;3.10;;;;;;;19.13;55.51;98709.09;437975;1273;141602;-62
2022/06/20 00:57:18;;;;;;;5.00;3.00;;;;;;;18.97;56.27;98726.15;430657;1273;142609;-61
2022/06/20 01:07:46;;;;;;;5.00;3.90;;;;;;;18.83;56.39;98718.99;433123;1273;142057;-61
2022/06/20 01:18:16;;;;;;;5.40;3.20;;;;;;;18.66;57.01;98724.61;431047;1273;142498;-60
2022/06/20 01:28:42;;;;;;;3.50;3.20;;;;;;;18.53;57.38;98720.14;431588;1273;142601;-62
2022/06/20 01:39:04;;;;;;;7.20;3.40;;;;;;;18.42;58.17;98711.27;430650;1273;142393;-61
2022/06/20 01:49:29;;;;;;;3.30;3.00;;;;;;;18.33;58.51;98706.28;430648;1273;142180;-59
2022/06/20 01:59:59;;;;;;;3.80;3.50;;;;;;;18.25;59.16;98713.35;431512;1273;143556;-61
2022/06/20 02:10:30;;;;;;;5.00;3.70;;;;;;;18.24;59.85;98723.02;431765;1273;143452;-62
2022/06/20 02:20:55;;;;;;;10.50;4.90;;;;;;;18.32;60.32;98730.42;431231;1273;146113;-61
2022/06/20 02:31:18;;;;;;;9.30;4.40;;;;;;;18.39;60.58;98751.31;431607;1273;147194;-62
2022/06/20 02:41:40;;;;;;;9.60;4.00;;;;;;;18.49;60.83;98771.84;430940;1272;142796;-60
2022/06/20 02:52:05;;;;;;;7.20;4.30;;;;;;;18.64;60.14;98774.77;430128;1273;146495;-61
2022/06/20 03:02:31;;;;;;;6.00;4.00;;;;;;;18.97;60.02;98792.58;429951;1273;187165;-63
2022/06/20 03:12:54;;;;;;;5.70;4.30;;;;;;;19.15;59.99;98812.65;430886;1273;141820;-61
2022/06/20 03:23:21;;;;;;;5.70;3.20;;;;;;;19.18;60.50;98821.55;430245;1273;141749;-61
2022/06/20 03:33:43;;;;;;;8.50;4.00;;;;;;;19.49;60.30;98821.47;430780;1273;142022;-61
2022/06/20 03:44:09;;;;;;;8.40;3.90;;;;;;;19.66;60.21;98825.71;430732;1273;145507;-61
2022/06/20 03:54:36;;;;;;;7.30;3.70;;;;;;;20.70;59.63;98840.22;430203;1273;144413;-61
2022/06/20 04:05:02;;;;;;;7.70;3.70;;;;;;;22.57;56.60;98853.10;429903;1273;144950;-63
2022/06/20 04:15:32;;;;;;;6.60;3.30;;;;;;;21.84;55.81;98883.80;431280;1273;145749;-62
2022/06/20 04:25:59;;;;;;;5.50;2.80;;;;;;;21.42;56.38;98870.67;429824;1273;143227;-60
2022/06/20 04:36:40;;;;;;;8.10;3.30;;;;;;;20.75;57.13;98897.59;431281;1273;142402;-62
2022/06/20 04:47:16;;;;;;;7.40;3.50;;;;;;;20.05;58.18;98905.37;429644;1273;145542;-64
2022/06/20 04:57:38;;;;;;;14.30;4.30;;;;;;;19.47;59.38;98882.86;432736;1273;143735;-62
2022/06/20 05:08:02;;;;;;;13.00;5.00;;;;;;;19.12;60.67;98848.58;429992;1273;144546;-61
2022/06/20 05:18:35;;;;;;;6.40;3.10;;;;;;;19.56;61.70;98826.77;433787;1273;143089;-62
2022/06/20 05:28:59;;;;;;;5.10;2.60;;;;;;;28.31;54.04;98822.97;430124;1272;141917;-62
2022/06/20 05:39:27;;;;;;;8.20;2.80;;;;;;;35.31;42.10;98799.31;438180;1273;143901;-62
2022/06/20 05:49:53;;;;;;;4.50;2.60;;;;;;;40.52;34.07;98792.09;431811;1273;142223;-59
2022/06/20 06:00:20;;;;;;;6.60;2.40;;;;;;;44.54;28.55;98798.34;430463;1274;141635;-62
2022/06/20 06:10:46;;;;;;;5.00;1.90;;;;;;;46.25;24.10;98788.51;430282;1273;140655;-60
2022/06/20 06:21:07;;;;;;;4.50;2.50;;;;;;;39.59;25.63;98788.08;430529;1273;142066;-61
2022/06/20 06:31:36;;;;;;;4.20;2.30;;;;;;;33.74;30.33;98789.52;431014;1273;146354;-60
2022/06/20 06:42:03;;;;;;;10.30;3.70;;;;;;;31.09;33.83;98817.31;431984;1273;146520;-61
2022/06/20 06:52:34;;;;;;;8.10;3.00;;;;;;;29.97;35.93;98811.13;430626;1273;140924;-62
2022/06/20 07:03:03;;;;;;;9.50;3.60;;;;;;;32.06;37.05;98799.05;430879;1273;142295;-59
2022/06/20 07:13:36;;;;;;;9.30;3.70;;;;;;;40.61;28.65;98795.04;430604;1273;145511;-61
2022/06/20 07:24:00;;;;;;;8.70;3.70;;;;;;;46.20;23.52;98749.02;430812;1273;146077;-62
2022/06/20 07:34:28;;;;;;;6.90;4.20;;;;;;;48.65;20.46;98720.36;430807;1273;142525;-62
2022/06/20 07:44:52;;;;;;;10.10;3.10;;;;;;;50.02;19.12;98714.44;446504;1273;143511;-62
2022/06/20 07:55:19;;;;;;;9.40;3.70;;;;;;;49.42;18.31;98694.97;447246;1272;143943;-61
2022/06/20 08:05:45;;;;;;;9.50;4.40;;;;;;;42.60;21.54;98665.66;446469;1272;141845;-61
2022/06/20 08:16:14;;;;;;;13.00;3.70;;;;;;;37.19;25.91;98650.50;447260;1273;145347;-62
2022/06/20 08:26:45;;;;;;;7.30;3.10;;;;;;;34.77;29.59;98652.02;446495;1270;142489;-63
2022/06/20 08:37:15;;;;;;;8.40;3.50;;;;;;;34.58;30.82;98642.97;446898;1272;434633;-62
2022/06/20 08:48:06;;;;;;;8.60;3.80;;;;;;;33.09;32.40;98631.48;441411;1273;142827;-61
2022/06/20 08:58:41;;;;;;;8.70;2.90;;;;;;;32.63;33.11;98619.41;430327;1273;142760;-62
2022/06/20 09:09:22;;;;;;;8.40;3.00;;;;;;;32.38;34.21;98620.83;431055;1273;141017;-61
2022/06/20 09:20:02;;;;;;;4.10;3.10;;;;;;;32.87;34.45;98608.73;430655;1273;144810;-62
2022/06/20 09:30:33;;;;;;;8.70;3.10;;;;;;;32.80;34.06;98597.38;431863;1273;142275;-61
2022/06/20 09:41:00;;;;;;;6.70;3.00;;;;;;;32.63;33.09;98581.20;430018;1273;143552;-63
2022/06/20 09:51:37;;;;;;;7.40;3.00;;;;;;;32.23;33.91;98559.62;431273;1273;183351;-63
2022/06/20 10:02:08;;;;;;;8.00;3.00;;;;;;;32.05;34.89;98561.45;430064;1273;143139;-61
2022/06/20 10:12:38;;;;;;;8.90;3.90;;;;;;;32.43;35.74;98558.09;430545;1273;142438;-61
2022/06/20 10:23:10;;;;;;;9.80;3.50;;;;;;;32.97;35.63;98592.11;429395;1273;185670;-63
2022/06/20 10:33:38;;;;;;;10.30;6.20;;;;;;;29.37;38.94;98669.28;430050;1273;145121;-63
2022/06/20 10:44:09;;;;;;;7.70;5.40;;;;;;;24.48;45.53;98759.32;430029;1273;142591;-61
2022/06/20 10:54:53;;;;;;;10.30;8.00;;;;;;;21.87;51.59;98763.27;430261;1273;146975;-62
2022/06/20 11:05:26;;;;;;;9.40;7.90;;;;;;;20.45;56.87;98756.46;430179;1273;142027;-62
2022/06/20 11:15:55;;;;;;;8.00;7.30;;;;;;;19.52;60.12;98675.13;430768;1272;148583;-61
2022/06/20 11:26:34;;;;;;;5.90;5.40;;;;;;;19.07;62.59;98787.75;430088;1273;143490;-60
2022/06/20 11:37:08;;;;;;;7.10;5.50;;;;;;;18.56;62.80;98804.03;430728;1273;145731;-62
2022/06/20 11:47:48;;;;;;;7.50;6.40;;;;;;;18.01;65.01;98745.33;430087;1272;142629;-62
2022/06/20 11:58:17;;;;;;;10.80;7.80;;;;;;;17.52;67.10;98712.84;433800;1273;147328;-61
2022/06/20 12:08:50;;;;;;;10.20;9.20;;;;;;;17.82;68.14;98772.33;430381;1273;143222;-59
2022/06/20 12:30:13;;;;;;;8.20;7.40;;;;;;;18.01;68.08;98869.75;430509;1271;142612;-61
2022/06/20 12:40:43;;;;;;;8.70;7.90;;;;;;;18.05;67.95;98798.17;430262;1273;145452;-61
2022/06/20 12:51:13;;;;;;;10.20;9.20;;;;;;;17.73;68.86;98753.63;430320;1273;141679;-62
2022/06/20 13:01:42;;;;;;;12.40;11.10;;;;;;;17.37;70.42;98665.57;432345;1272;146583;-61
2022/06/20 13:12:17;;;;;;;10.30;9.00;;;;;;;17.14;71.77;98621.85;430638;1273;147691;-58
2022/06/20 13:22:44;;;;;;;11.60;9.10;;;;;;;17.14;72.58;98671.02;430781;1273;147281;-61
2022/06/20 13:33:19;;;;;;;10.90;9.80;;;;;;;17.30;73.08;98721.31;431014;1273;143035;-60
2022/06/20 13:43:52;;;;;;;13.70;12.20;;;;;;;17.40;73.07;98720.63;430613;1273;142700;-61
2022/06/20 13:54:21;;;;;;;18.50;16.60;;;;;;;17.57;72.99;98657.41;433071;1273;143177;-61
2022/06/20 14:04:42;;;;;;;21.00;19.10;;;;;;;18.21;72.56;98608.22;447018;1272;144952;-61
2022/06/20 14:15:17;;;;;;;25.10;22.70;;;;;;;19.33;70.90;98591.63;435742;1272;144431;-62
2022/06/20 14:25:41;;;;;;;25.10;22.60;;;;;;;20.31;68.84;98569.98;430175;1272;142550;-62
2022/06/20 14:36:12;;;;;;;24.40;22.00;;;;;;;20.84;67.20;98582.27;430604;1273;144051;-61
2022/06/20 14:46:50;;;;;;;22.90;20.80;;;;;;;21.30;66.44;98596.20;431067;1271;142437;-61
2022/06/20 14:57:22;;;;;;;22.00;19.90;;;;;;;22.18;65.20;98570.60;430392;1273;143043;-62
2022/06/20 15:07:50;;;;;;;21.40;19.10;;;;;;;22.48;63.85;98565.47;430319;1273;146683;-62
2022/06/20 15:18:26;;;;;;;18.70;16.90;;;;;;;22.28;63.80;98545.58;432131;1272;142227;-62
2022/06/20 15:29:00;;;;;;;19.60;17.60;;;;;;;21.95;64.38;98512.23;429988;1273;146744;-61
2022/06/20 15:39:27;;;;;;;17.00;15.40;;;;;;;22.14;64.18;98483.11;430183;1273;146095;-63
2022/06/20 15:49:56;;;;;;;13.40;12.10;;;;;;;22.16;63.86;98489.92;430597;1273;145555;-61
2022/06/20 16:00:22;;;;;;;9.50;8.60;;;;;;;22.41;63.90;98495.21;430372;1273;142204;-61
2022/06/20 16:10:52;;;;;;;9.50;8.00;;;;;;;22.90;63.82;98511.00;431413;1273;141912;-61
2022/06/20 16:21:18;;;;;;;7.80;7.10;;;;;;;23.22;63.02;98526.41;431856;1272;142544;-62
2022/06/20 16:31:49;;;;;;;9.00;7.60;;;;;;;22.59;63.48;98545.02;431166;1273;147874;-63
2022/06/20 16:42:25;;;;;;;9.70;8.70;;;;;;;21.58;65.02;98567.66;430510;1273;141556;-63
2022/06/20 16:53:11;;;;;;;19.00;17.40;;;;;;;20.86;66.50;98601.11;430891;1273;146208;-62
2022/06/20 17:03:42;;;;;;;13.80;12.50;;;;;;;19.63;67.95;98624.02;437605;1273;146020;-62
2022/06/20 17:14:21;;;;;;;12.60;11.30;;;;;;;18.71;70.27;98649.05;434665;1273;142455;-62
2022/06/20 17:24:58;;;;;;;15.50;12.90;;;;;;;18.29;71.61;98654.98;447295;1271;143026;-60
2022/06/20 17:35:30;;;;;;;11.70;10.30;;;;;;;18.11;72.57;98661.34;441985;1273;144493;-62
2022/06/20 17:45:58;;;;;;;8.70;8.00;;;;;;;17.73;73.18;98608.11;434908;1273;143720;-62
2022/06/20 17:56:25;;;;;;;;;;;;;;;17.40;74.02;98597.54;430231;1273;144903;-61
2022/06/20 18:06:48;;;;;;;2.60;2.40;;;;;;;17.14;74.75;98652.67;445107;1272;128655;-61
2022/06/20 18:17:14;;;;;;;2.10;0.90;;;;;;;16.70;74.63;98681.75;439462;1272;143395;-61
2022/06/20 18:27:43;;;;;;;1.80;1.20;;;;;;;16.36;74.90;98666.04;431262;1273;148886;-62
2022/06/20 18:38:21;;;;;;;1.20;1.20;;;;;;;16.09;75.69;98669.84;440032;1273;144033;-61
2022/06/20 18:48:56;;;;;;;1.40;1.30;;;;;;;15.90;76.23;98668.48;447279;1272;144358;-61
2022/06/20 18:59:41;;;;;;;0.80;0.80;;;;;;;15.71;76.67;98683.40;440234;1273;201811;-62
2022/06/20 19:10:31;;;;;;;1.10;1.00;;;;;;;15.50;76.89;98682.50;446165;1273;141974;-59
2022/06/20 19:21:09;;;;;;;2.00;1.90;;;;;;;15.42;77.11;98684.91;443369;1273;146202;-58
2022/06/20 19:31:17;;;;;;;2.60;2.30;;;;;;;15.28;77.26;98673.05;439708;1271;145443;-59
2022/06/20 19:41:28;;;;;;;3.30;2.50;;;;;;;15.21;77.43;98674.98;432374;1273;146648;-60
2022/06/20 19:51:53;;;;;;;3.30;3.00;;;;;;;15.13;77.40;98668.26;432286;1273;142095;-60
2022/06/20 20:02:10;;;;;;;2.40;2.30;;;;;;;15.06;77.66;98672.02;430451;1273;143701;-59
2022/06/20 20:12:14;;;;;;;2.30;2.10;;;;;;;15.02;78.17;98689.46;431262;1273;144083;-58
2022/06/20 20:22:21;;;;;;;3.60;2.60;;;;;;;14.97;78.46;98728.84;430952;1273;145557;-61
2022/06/20 20:32:36;;;;;;;3.60;2.60;;;;;;;14.87;78.61;98746.03;430146;1273;1092217;-60
2022/06/20 20:43:15;;;;;;;2.50;1.50;;;;;;;14.78;78.52;98757.48;431009;1273;143318;-59
2022/06/20 20:53:24;;;;;;;2.60;2.40;;;;;;;14.63;78.29;98763.06;429648;1273;142396;-60
2022/06/20 21:03:28;;;;;;;2.40;2.20;;;;;;;14.43;78.19;98769.44;430313;1273;142637;-60
2022/06/20 21:13:40;;;;;;;2.60;1.60;;;;;;;14.25;78.01;98788.77;431219;1273;146075;-60
2022/06/20 21:23:47;;;;;;;1.50;1.40;;;;;;;14.10;78.06;98796.21;429606;1272;197549;-61
2022/06/20 21:33:55;;;;;;;1.70;1.60;;;;;;;14.04;78.34;98795.19;430466;1272;146631;-61
2022/06/20 21:44:05;;;;;;;2.00;1.20;;;;;;;13.89;78.24;98812.95;431807;1273;147951;-61
2022/06/20 21:54:13;;;;;;;1.20;1.10;;;;;;;13.74;78.32;98831.67;430288;1273;141931;-60
2022/06/20 22:04:26;;;;;;;1.70;1.30;;;;;;;13.59;78.24;98836.97;430291;1273;145713;-60
2022/06/20 22:14:30;;;;;;;2.10;1.10;;;;;;;13.39;78.36;98846.98;431371;1273;143648;-59
2022/06/20 22:24:35;;;;;;;1.50;1.40;;;;;;;13.16;78.14;98838.61;433664;1273;143362;-61
2022/06/20 22:34:40;;;;;;;2.50;1.30;;;;;;;13.01;77.60;98831.44;447061;1272;143580;-61
2022/06/20 22:44:43;;;;;;;3.30;1.40;;;;;;;12.87;77.50;98829.15;429405;1273;142963;-62
2022/06/20 22:54:52;;;;;;;1.80;1.70;;;;;;;12.74;77.71;98836.41;441343;1273;143871;-60
2022/06/20 23:04:59;;;;;;;5.30;2.20;;;;;;;12.73;78.05;98846.42;446266;1273;144045;-61
2022/06/20 23:15:03;;;;;;;3.40;2.20;;;;;;;12.78;77.98;98856.79;439861;1273;142125;-61
2022/06/20 23:25:17;;;;;;;2.70;2.30;;;;;;;12.79;77.97;98848.08;431887;1273;145624;-61
2022/06/20 23:35:24;;;;;;;2.30;2.20;;;;;;;12.67;78.28;98842.59;429945;1274;147293;-58
2022/06/20 23:45:30;;;;;;;3.00;2.80;;;;;;;12.65;78.23;98835.77;430681;1273;147139;-57
2022/06/20 23:55:33;;;;;;;3.10;2.80;;;;;;;12.61;78.28;98831.16;432952;1273;146575;-58
